Portada
METAR-TAF:

METAR-TAF

Aeropuertos :

Lanzarote, España

Aeropuerto de Lanzarote

latitud: 28-57N, longitud: 013-36W, altitud: 14 m

Observación

El informe se hizo hace 38 minutos, a las 13:30 UTC
Viento 12 kt del este-sureste
Temperatura 20°C
Humedad 73%
Presión 1017 hPa
Visibilidad 10 km o más
Escasas nubes a una altura de 3500 ft
Cielo nuboso a una altura de 4500 ft

METAR: GCRR 241330Z 11012KT 9999 FEW035 BKN045 20/15 Q1017

Hora: 15:08 (14:08 UTC)

Pronóstico

El informe se hizo hace 38 minutos, a las 13:30 UTC
Pronóstico válido del 24 a las 13 UTC al 25 a las 09 UTC
Viento 9 kt del norte-noroeste
Visibilidad 10 km o más
Nubes dispersas a una altura de 3000 ft
Temporalmente
del 24 a las 13 UTC al 24 a las 17 UTC
Viento 10 kt del sur-sureste

TAF: GCRR 241330Z 2413/2509 34009KT 9999 SCT030 TX23/2414Z TN17/2505Z TEMPO 2413/2417 15010KT

Observaciones y pronósticos meteorológicos de más de 4000 aeropuertos (mensajes METAR y TAF).

Los puntos amarillos y rojos representan las estaciones disponibles.

Ponga el ratón en el punto deseado para ver el nombre de la estación.

Haga clic para ver las observaciones y los pronósticos meteorológicos.

Para cambiar el mapa : haga clic en los botones verdes con una cruz de color negro para hacer un zoom, en el botón verde con un guión para alejar o en las flechas verdes para mapas adyacentes.


METAR-TAF: